sensor_id;sensor_type;location;lat;lon;timestamp;P1;durP1;ratioP1;P2;durP2;ratioP2
68942;SDS011;60852;52.190;4.422;2024-02-14T00:01:03;12.71;;;12.71;;
68942;SDS011;60852;52.190;4.422;2024-02-14T00:03:29;12.82;;;12.82;;
68942;SDS011;60852;52.190;4.422;2024-02-14T00:05:54;13.34;;;13.34;;
68942;SDS011;60852;52.190;4.422;2024-02-14T00:08:22;13.66;;;13.66;;
68942;SDS011;60852;52.190;4.422;2024-02-14T00:10:48;14.18;;;14.18;;
68942;SDS011;60852;52.190;4.422;2024-02-14T00:13:13;15.03;;;15.03;;
68942;SDS011;60852;52.190;4.422;2024-02-14T00:15:39;15.39;;;15.39;;
68942;SDS011;60852;52.190;4.422;2024-02-14T00:18:05;16.03;;;16.03;;
68942;SDS011;60852;52.190;4.422;2024-02-14T00:20:31;16.33;;;16.33;;
68942;SDS011;60852;52.190;4.422;2024-02-14T00:22:57;16.22;;;16.22;;
68942;SDS011;60852;52.190;4.422;2024-02-14T00:25:23;16.30;;;16.30;;
68942;SDS011;60852;52.190;4.422;2024-02-14T00:27:48;16.57;;;16.57;;
68942;SDS011;60852;52.190;4.422;2024-02-14T00:30:14;16.32;;;16.32;;
68942;SDS011;60852;52.190;4.422;2024-02-14T00:32:40;16.49;;;16.49;;
68942;SDS011;60852;52.190;4.422;2024-02-14T00:35:06;16.32;;;16.32;;
68942;SDS011;60852;52.190;4.422;2024-02-14T00:37:31;17.00;;;17.00;;
68942;SDS011;60852;52.190;4.422;2024-02-14T00:39:58;16.72;;;16.72;;
68942;SDS011;60852;52.190;4.422;2024-02-14T00:42:24;16.07;;;16.07;;
68942;SDS011;60852;52.190;4.422;2024-02-14T00:44:49;15.00;;;15.00;;
68942;SDS011;60852;52.190;4.422;2024-02-14T00:47:15;14.46;;;14.46;;
68942;SDS011;60852;52.190;4.422;2024-02-14T00:49:40;14.32;;;14.32;;
68942;SDS011;60852;52.190;4.422;2024-02-14T00:52:06;14.11;;;14.11;;
68942;SDS011;60852;52.190;4.422;2024-02-14T00:54:31;14.05;;;14.05;;
68942;SDS011;60852;52.190;4.422;2024-02-14T00:56:57;13.36;;;13.36;;
68942;SDS011;60852;52.190;4.422;2024-02-14T00:59:22;13.75;;;13.75;;
68942;SDS011;60852;52.190;4.422;2024-02-14T01:01:48;13.75;;;13.75;;
68942;SDS011;60852;52.190;4.422;2024-02-14T01:04:14;14.00;;;14.00;;
68942;SDS011;60852;52.190;4.422;2024-02-14T01:06:39;13.96;;;13.96;;
68942;SDS011;60852;52.190;4.422;2024-02-14T01:09:05;13.34;;;13.34;;
68942;SDS011;60852;52.190;4.422;2024-02-14T01:11:30;12.82;;;12.82;;
68942;SDS011;60852;52.190;4.422;2024-02-14T01:13:56;12.61;;;12.61;;
68942;SDS011;60852;52.190;4.422;2024-02-14T01:16:21;12.54;;;12.54;;
68942;SDS011;60852;52.190;4.422;2024-02-14T01:18:46;12.41;;;12.41;;
68942;SDS011;60852;52.190;4.422;2024-02-14T01:21:12;12.42;;;12.42;;
68942;SDS011;60852;52.190;4.422;2024-02-14T01:23:37;12.77;;;12.77;;
68942;SDS011;60852;52.190;4.422;2024-02-14T01:26:03;12.36;;;12.36;;
68942;SDS011;60852;52.190;4.422;2024-02-14T01:28:28;12.67;;;12.67;;
68942;SDS011;60852;52.190;4.422;2024-02-14T01:30:54;11.72;;;11.72;;
68942;SDS011;60852;52.190;4.422;2024-02-14T01:33:21;11.20;;;11.20;;
68942;SDS011;60852;52.190;4.422;2024-02-14T01:35:46;11.28;;;11.28;;
68942;SDS011;60852;52.190;4.422;2024-02-14T01:38:12;10.88;;;10.88;;
68942;SDS011;60852;52.190;4.422;2024-02-14T01:40:38;10.40;;;10.40;;
68942;SDS011;60852;52.190;4.422;2024-02-14T01:43:03;10.49;;;10.49;;
68942;SDS011;60852;52.190;4.422;2024-02-14T01:45:29;9.99;;;9.99;;
68942;SDS011;60852;52.190;4.422;2024-02-14T01:47:54;9.45;;;9.45;;
68942;SDS011;60852;52.190;4.422;2024-02-14T01:50:21;9.28;;;9.28;;
68942;SDS011;60852;52.190;4.422;2024-02-14T01:52:54;9.19;;;9.19;;
68942;SDS011;60852;52.190;4.422;2024-02-14T01:55:24;8.53;;;8.53;;
68942;SDS011;60852;52.190;4.422;2024-02-14T01:57:51;8.09;;;8.09;;
68942;SDS011;60852;52.190;4.422;2024-02-14T02:00:18;7.83;;;7.83;;
68942;SDS011;60852;52.190;4.422;2024-02-14T02:02:44;7.66;;;7.66;;
68942;SDS011;60852;52.190;4.422;2024-02-14T02:05:11;7.22;;;7.22;;
68942;SDS011;60852;52.190;4.422;2024-02-14T02:07:38;7.62;;;7.62;;
68942;SDS011;60852;52.190;4.422;2024-02-14T02:10:08;8.11;;;8.11;;
68942;SDS011;60852;52.190;4.422;2024-02-14T02:12:36;8.07;;;8.07;;
68942;SDS011;60852;52.190;4.422;2024-02-14T02:15:06;8.34;;;8.34;;
68942;SDS011;60852;52.190;4.422;2024-02-14T02:17:32;8.82;;;8.82;;
68942;SDS011;60852;52.190;4.422;2024-02-14T02:20:01;9.13;;;9.13;;
68942;SDS011;60852;52.190;4.422;2024-02-14T02:22:27;10.58;;;10.58;;
68942;SDS011;60852;52.190;4.422;2024-02-14T02:24:54;10.50;;;10.50;;
68942;SDS011;60852;52.190;4.422;2024-02-14T02:27:20;11.24;;;11.24;;
68942;SDS011;60852;52.190;4.422;2024-02-14T02:29:45;11.55;;;11.55;;
68942;SDS011;60852;52.190;4.422;2024-02-14T02:32:11;11.89;;;11.86;;
68942;SDS011;60852;52.190;4.422;2024-02-14T02:34:36;11.58;;;11.58;;
68942;SDS011;60852;52.190;4.422;2024-02-14T02:37:04;11.96;;;11.95;;
68942;SDS011;60852;52.190;4.422;2024-02-14T02:39:32;11.69;;;11.62;;
68942;SDS011;60852;52.190;4.422;2024-02-14T02:41:59;10.94;;;10.92;;
68942;SDS011;60852;52.190;4.422;2024-02-14T02:44:24;11.31;;;11.23;;
68942;SDS011;60852;52.190;4.422;2024-02-14T02:46:50;11.41;;;11.12;;
68942;SDS011;60852;52.190;4.422;2024-02-14T02:49:15;11.07;;;10.78;;
68942;SDS011;60852;52.190;4.422;2024-02-14T02:51:41;10.63;;;10.21;;
68942;SDS011;60852;52.190;4.422;2024-02-14T02:54:06;10.34;;;10.02;;
68942;SDS011;60852;52.190;4.422;2024-02-14T02:56:33;9.71;;;9.33;;
68942;SDS011;60852;52.190;4.422;2024-02-14T02:58:59;10.37;;;9.76;;
68942;SDS011;60852;52.190;4.422;2024-02-14T03:01:24;9.68;;;9.11;;
68942;SDS011;60852;52.190;4.422;2024-02-14T03:03:55;9.51;;;8.76;;
68942;SDS011;60852;52.190;4.422;2024-02-14T03:06:20;9.69;;;8.69;;
68942;SDS011;60852;52.190;4.422;2024-02-14T03:08:46;10.49;;;9.07;;
68942;SDS011;60852;52.190;4.422;2024-02-14T03:11:11;10.23;;;8.76;;
68942;SDS011;60852;52.190;4.422;2024-02-14T03:13:37;11.41;;;9.42;;
68942;SDS011;60852;52.190;4.422;2024-02-14T03:16:06;12.43;;;9.91;;
68942;SDS011;60852;52.190;4.422;2024-02-14T03:18:32;12.08;;;9.65;;
68942;SDS011;60852;52.190;4.422;2024-02-14T03:20:58;12.34;;;9.70;;
68942;SDS011;60852;52.190;4.422;2024-02-14T03:23:23;12.90;;;9.88;;
68942;SDS011;60852;52.190;4.422;2024-02-14T03:25:48;11.89;;;9.10;;
68942;SDS011;60852;52.190;4.422;2024-02-14T03:28:14;12.75;;;9.76;;
68942;SDS011;60852;52.190;4.422;2024-02-14T03:30:39;11.76;;;9.19;;
68942;SDS011;60852;52.190;4.422;2024-02-14T03:33:05;11.87;;;9.10;;
68942;SDS011;60852;52.190;4.422;2024-02-14T03:35:33;14.26;;;10.37;;
68942;SDS011;60852;52.190;4.422;2024-02-14T03:38:00;12.28;;;9.03;;
68942;SDS011;60852;52.190;4.422;2024-02-14T03:40:26;11.65;;;8.89;;
68942;SDS011;60852;52.190;4.422;2024-02-14T03:42:52;13.56;;;9.98;;
68942;SDS011;60852;52.190;4.422;2024-02-14T03:45:18;13.84;;;10.04;;
68942;SDS011;60852;52.190;4.422;2024-02-14T03:47:44;13.17;;;9.71;;
68942;SDS011;60852;52.190;4.422;2024-02-14T03:50:09;13.39;;;9.83;;
68942;SDS011;60852;52.190;4.422;2024-02-14T03:52:35;13.42;;;10.06;;
68942;SDS011;60852;52.190;4.422;2024-02-14T03:55:00;13.60;;;9.82;;
68942;SDS011;60852;52.190;4.422;2024-02-14T03:57:27;13.98;;;10.16;;
68942;SDS011;60852;52.190;4.422;2024-02-14T03:59:54;13.77;;;9.97;;
68942;SDS011;60852;52.190;4.422;2024-02-14T04:02:20;12.71;;;9.41;;
68942;SDS011;60852;52.190;4.422;2024-02-14T04:04:48;13.11;;;9.60;;
68942;SDS011;60852;52.190;4.422;2024-02-14T04:07:14;12.75;;;9.32;;
68942;SDS011;60852;52.190;4.422;2024-02-14T04:09:40;13.16;;;9.60;;
68942;SDS011;60852;52.190;4.422;2024-02-14T04:12:05;14.08;;;10.03;;
68942;SDS011;60852;52.190;4.422;2024-02-14T04:14:31;14.03;;;9.97;;
68942;SDS011;60852;52.190;4.422;2024-02-14T04:16:56;13.47;;;9.68;;
68942;SDS011;60852;52.190;4.422;2024-02-14T04:19:22;12.30;;;9.10;;
68942;SDS011;60852;52.190;4.422;2024-02-14T04:21:47;13.19;;;9.60;;
68942;SDS011;60852;52.190;4.422;2024-02-14T04:24:13;12.17;;;8.79;;
68942;SDS011;60852;52.190;4.422;2024-02-14T04:26:39;13.06;;;9.28;;
68942;SDS011;60852;52.190;4.422;2024-02-14T04:29:04;11.58;;;8.41;;
68942;SDS011;60852;52.190;4.422;2024-02-14T04:31:30;11.54;;;8.54;;
68942;SDS011;60852;52.190;4.422;2024-02-14T04:33:56;13.49;;;9.60;;
68942;SDS011;60852;52.190;4.422;2024-02-14T04:36:22;13.57;;;9.60;;
68942;SDS011;60852;52.190;4.422;2024-02-14T04:38:48;12.58;;;8.91;;
68942;SDS011;60852;52.190;4.422;2024-02-14T04:41:14;14.16;;;9.85;;
68942;SDS011;60852;52.190;4.422;2024-02-14T04:43:40;15.98;;;10.68;;
68942;SDS011;60852;52.190;4.422;2024-02-14T04:46:05;14.89;;;10.07;;
68942;SDS011;60852;52.190;4.422;2024-02-14T04:48:35;13.23;;;9.47;;
68942;SDS011;60852;52.190;4.422;2024-02-14T04:51:03;12.73;;;9.29;;
68942;SDS011;60852;52.190;4.422;2024-02-14T04:53:32;14.42;;;10.30;;
68942;SDS011;60852;52.190;4.422;2024-02-14T04:55:57;13.41;;;9.89;;
68942;SDS011;60852;52.190;4.422;2024-02-14T04:58:23;13.49;;;9.95;;
68942;SDS011;60852;52.190;4.422;2024-02-14T05:00:49;12.89;;;9.44;;
68942;SDS011;60852;52.190;4.422;2024-02-14T05:03:15;12.21;;;9.17;;
68942;SDS011;60852;52.190;4.422;2024-02-14T05:05:41;11.01;;;8.46;;
68942;SDS011;60852;52.190;4.422;2024-02-14T05:08:06;10.20;;;7.96;;
68942;SDS011;60852;52.190;4.422;2024-02-14T05:10:32;9.70;;;7.77;;
68942;SDS011;60852;52.190;4.422;2024-02-14T05:12:57;10.25;;;8.20;;
68942;SDS011;60852;52.190;4.422;2024-02-14T05:15:23;9.76;;;7.83;;
68942;SDS011;60852;52.190;4.422;2024-02-14T05:17:48;10.33;;;8.13;;
68942;SDS011;60852;52.190;4.422;2024-02-14T05:20:15;10.92;;;8.50;;
68942;SDS011;60852;52.190;4.422;2024-02-14T05:22:41;11.57;;;8.96;;
68942;SDS011;60852;52.190;4.422;2024-02-14T05:25:07;11.70;;;9.15;;
68942;SDS011;60852;52.190;4.422;2024-02-14T05:27:34;11.99;;;9.41;;
68942;SDS011;60852;52.190;4.422;2024-02-14T05:30:00;12.02;;;9.12;;
68942;SDS011;60852;52.190;4.422;2024-02-14T05:32:25;11.20;;;8.53;;
68942;SDS011;60852;52.190;4.422;2024-02-14T05:34:51;11.74;;;8.72;;
68942;SDS011;60852;52.190;4.422;2024-02-14T05:37:16;12.35;;;9.15;;
68942;SDS011;60852;52.190;4.422;2024-02-14T05:39:42;10.89;;;8.37;;
68942;SDS011;60852;52.190;4.422;2024-02-14T05:42:07;10.95;;;8.41;;
68942;SDS011;60852;52.190;4.422;2024-02-14T05:44:33;11.99;;;9.05;;
68942;SDS011;60852;52.190;4.422;2024-02-14T05:46:58;11.05;;;8.52;;
68942;SDS011;60852;52.190;4.422;2024-02-14T05:49:25;11.45;;;8.72;;
68942;SDS011;60852;52.190;4.422;2024-02-14T05:51:51;12.04;;;9.18;;
68942;SDS011;60852;52.190;4.422;2024-02-14T05:54:18;11.94;;;9.07;;
68942;SDS011;60852;52.190;4.422;2024-02-14T05:56:44;12.52;;;9.40;;
68942;SDS011;60852;52.190;4.422;2024-02-14T05:59:10;13.36;;;10.19;;
68942;SDS011;60852;52.190;4.422;2024-02-14T06:01:35;12.62;;;9.66;;
68942;SDS011;60852;52.190;4.422;2024-02-14T06:04:01;12.67;;;9.67;;
68942;SDS011;60852;52.190;4.422;2024-02-14T06:06:26;12.13;;;9.40;;
68942;SDS011;60852;52.190;4.422;2024-02-14T06:08:52;13.06;;;10.03;;
68942;SDS011;60852;52.190;4.422;2024-02-14T06:11:17;12.23;;;9.58;;
68942;SDS011;60852;52.190;4.422;2024-02-14T06:13:46;12.33;;;9.97;;
68942;SDS011;60852;52.190;4.422;2024-02-14T06:16:12;11.82;;;9.57;;
68942;SDS011;60852;52.190;4.422;2024-02-14T06:18:38;11.08;;;9.35;;
68942;SDS011;60852;52.190;4.422;2024-02-14T06:21:07;11.50;;;9.59;;
68942;SDS011;60852;52.190;4.422;2024-02-14T06:23:32;11.13;;;9.35;;
68942;SDS011;60852;52.190;4.422;2024-02-14T06:25:59;11.32;;;9.57;;
68942;SDS011;60852;52.190;4.422;2024-02-14T06:28:24;11.05;;;9.40;;
68942;SDS011;60852;52.190;4.422;2024-02-14T06:30:50;11.82;;;9.87;;
68942;SDS011;60852;52.190;4.422;2024-02-14T06:33:15;12.02;;;10.04;;
68942;SDS011;60852;52.190;4.422;2024-02-14T06:35:41;11.50;;;9.73;;
68942;SDS011;60852;52.190;4.422;2024-02-14T06:38:07;12.49;;;10.40;;
68942;SDS011;60852;52.190;4.422;2024-02-14T06:40:32;12.48;;;10.63;;
68942;SDS011;60852;52.190;4.422;2024-02-14T06:42:58;13.06;;;11.57;;
68942;SDS011;60852;52.190;4.422;2024-02-14T06:45:28;12.13;;;11.26;;
68942;SDS011;60852;52.190;4.422;2024-02-14T06:47:54;12.46;;;11.60;;
68942;SDS011;60852;52.190;4.422;2024-02-14T06:50:19;11.93;;;11.49;;
68942;SDS011;60852;52.190;4.422;2024-02-14T06:52:45;10.68;;;10.49;;
68942;SDS011;60852;52.190;4.422;2024-02-14T06:55:11;10.61;;;10.58;;
68942;SDS011;60852;52.190;4.422;2024-02-14T06:57:36;10.84;;;10.72;;
68942;SDS011;60852;52.190;4.422;2024-02-14T07:00:04;11.47;;;11.14;;
68942;SDS011;60852;52.190;4.422;2024-02-14T07:02:31;11.29;;;11.04;;
68942;SDS011;60852;52.190;4.422;2024-02-14T07:04:57;11.53;;;10.99;;
68942;SDS011;60852;52.190;4.422;2024-02-14T07:07:22;11.31;;;10.84;;
68942;SDS011;60852;52.190;4.422;2024-02-14T07:09:48;10.92;;;10.34;;
68942;SDS011;60852;52.190;4.422;2024-02-14T07:12:13;11.32;;;10.80;;
68942;SDS011;60852;52.190;4.422;2024-02-14T07:14:39;9.77;;;9.64;;
68942;SDS011;60852;52.190;4.422;2024-02-14T07:17:04;10.35;;;10.12;;
68942;SDS011;60852;52.190;4.422;2024-02-14T07:19:30;10.63;;;10.14;;
68942;SDS011;60852;52.190;4.422;2024-02-14T07:21:55;10.54;;;10.13;;
68942;SDS011;60852;52.190;4.422;2024-02-14T07:24:21;9.94;;;9.46;;
68942;SDS011;60852;52.190;4.422;2024-02-14T07:26:46;10.01;;;9.22;;
68942;SDS011;60852;52.190;4.422;2024-02-14T07:29:12;10.09;;;9.32;;
68942;SDS011;60852;52.190;4.422;2024-02-14T07:31:37;9.72;;;9.10;;
68942;SDS011;60852;52.190;4.422;2024-02-14T07:34:03;9.55;;;8.96;;
68942;SDS011;60852;52.190;4.422;2024-02-14T07:36:29;9.65;;;9.43;;
68942;SDS011;60852;52.190;4.422;2024-02-14T07:38:55;9.45;;;9.19;;
68942;SDS011;60852;52.190;4.422;2024-02-14T07:41:20;9.40;;;8.72;;
68942;SDS011;60852;52.190;4.422;2024-02-14T07:43:45;8.87;;;8.18;;
68942;SDS011;60852;52.190;4.422;2024-02-14T07:46:11;8.59;;;7.86;;
68942;SDS011;60852;52.190;4.422;2024-02-14T07:48:41;8.06;;;7.38;;
68942;SDS011;60852;52.190;4.422;2024-02-14T07:51:07;8.04;;;7.42;;
68942;SDS011;60852;52.190;4.422;2024-02-14T07:53:33;8.94;;;8.04;;
68942;SDS011;60852;52.190;4.422;2024-02-14T07:55:58;8.61;;;7.80;;
68942;SDS011;60852;52.190;4.422;2024-02-14T07:58:24;8.19;;;7.60;;
68942;SDS011;60852;52.190;4.422;2024-02-14T08:00:49;7.94;;;7.38;;
68942;SDS011;60852;52.190;4.422;2024-02-14T08:03:14;7.55;;;7.15;;
68942;SDS011;60852;52.190;4.422;2024-02-14T08:05:40;7.64;;;7.17;;
68942;SDS011;60852;52.190;4.422;2024-02-14T08:08:07;6.47;;;6.03;;
68942;SDS011;60852;52.190;4.422;2024-02-14T08:10:33;6.28;;;5.84;;
68942;SDS011;60852;52.190;4.422;2024-02-14T08:12:58;5.99;;;5.54;;
68942;SDS011;60852;52.190;4.422;2024-02-14T08:15:24;5.87;;;5.42;;
68942;SDS011;60852;52.190;4.422;2024-02-14T08:17:49;5.73;;;5.28;;
68942;SDS011;60852;52.190;4.422;2024-02-14T08:20:15;4.83;;;4.67;;
68942;SDS011;60852;52.190;4.422;2024-02-14T08:22:40;4.47;;;4.47;;
68942;SDS011;60852;52.190;4.422;2024-02-14T08:25:06;4.87;;;4.87;;
68942;SDS011;60852;52.190;4.422;2024-02-14T08:27:32;5.07;;;5.07;;
68942;SDS011;60852;52.190;4.422;2024-02-14T08:29:57;5.70;;;5.70;;
68942;SDS011;60852;52.190;4.422;2024-02-14T08:32:23;5.90;;;5.90;;
68942;SDS011;60852;52.190;4.422;2024-02-14T08:34:48;7.00;;;7.00;;
68942;SDS011;60852;52.190;4.422;2024-02-14T08:37:15;7.38;;;7.38;;
68942;SDS011;60852;52.190;4.422;2024-02-14T08:39:41;6.85;;;6.85;;
68942;SDS011;60852;52.190;4.422;2024-02-14T08:42:06;7.71;;;7.71;;
68942;SDS011;60852;52.190;4.422;2024-02-14T08:44:33;6.70;;;6.70;;
68942;SDS011;60852;52.190;4.422;2024-02-14T08:46:59;6.95;;;6.95;;
68942;SDS011;60852;52.190;4.422;2024-02-14T08:49:25;6.74;;;6.74;;
68942;SDS011;60852;52.190;4.422;2024-02-14T08:51:50;6.93;;;6.92;;
68942;SDS011;60852;52.190;4.422;2024-02-14T08:54:16;7.37;;;7.37;;
68942;SDS011;60852;52.190;4.422;2024-02-14T08:56:41;6.98;;;6.98;;
68942;SDS011;60852;52.190;4.422;2024-02-14T08:59:07;6.97;;;6.96;;
68942;SDS011;60852;52.190;4.422;2024-02-14T09:01:32;7.28;;;7.28;;
68942;SDS011;60852;52.190;4.422;2024-02-14T09:03:58;6.87;;;6.87;;
68942;SDS011;60852;52.190;4.422;2024-02-14T09:06:24;6.87;;;6.87;;
68942;SDS011;60852;52.190;4.422;2024-02-14T09:08:51;6.76;;;6.76;;
68942;SDS011;60852;52.190;4.422;2024-02-14T09:11:17;6.66;;;6.66;;
68942;SDS011;60852;52.190;4.422;2024-02-14T09:13:42;6.66;;;6.66;;
68942;SDS011;60852;52.190;4.422;2024-02-14T09:16:09;6.41;;;6.41;;
68942;SDS011;60852;52.190;4.422;2024-02-14T09:18:35;6.41;;;6.41;;
68942;SDS011;60852;52.190;4.422;2024-02-14T09:21:02;4.97;;;4.97;;
68942;SDS011;60852;52.190;4.422;2024-02-14T09:23:31;5.14;;;5.14;;
68942;SDS011;60852;52.190;4.422;2024-02-14T09:25:57;4.71;;;4.71;;
68942;SDS011;60852;52.190;4.422;2024-02-14T09:28:23;4.49;;;4.49;;
68942;SDS011;60852;52.190;4.422;2024-02-14T09:30:48;4.23;;;4.23;;
68942;SDS011;60852;52.190;4.422;2024-02-14T09:33:14;4.52;;;4.52;;
68942;SDS011;60852;52.190;4.422;2024-02-14T09:35:39;4.08;;;4.08;;
68942;SDS011;60852;52.190;4.422;2024-02-14T09:38:10;4.16;;;4.16;;
68942;SDS011;60852;52.190;4.422;2024-02-14T09:40:38;4.05;;;4.05;;
68942;SDS011;60852;52.190;4.422;2024-02-14T09:43:07;4.34;;;4.34;;
68942;SDS011;60852;52.190;4.422;2024-02-14T09:45:45;4.13;;;4.13;;
68942;SDS011;60852;52.190;4.422;2024-02-14T09:48:12;4.28;;;4.28;;
68942;SDS011;60852;52.190;4.422;2024-02-14T09:50:39;4.24;;;4.24;;
68942;SDS011;60852;52.190;4.422;2024-02-14T09:53:05;3.94;;;3.94;;
68942;SDS011;60852;52.190;4.422;2024-02-14T09:55:32;3.73;;;3.73;;
68942;SDS011;60852;52.190;4.422;2024-02-14T09:57:58;3.60;;;3.60;;
68942;SDS011;60852;52.190;4.422;2024-02-14T10:00:29;3.48;;;3.48;;
68942;SDS011;60852;52.190;4.422;2024-02-14T10:02:56;3.63;;;3.63;;
68942;SDS011;60852;52.190;4.422;2024-02-14T10:05:30;3.32;;;3.32;;
68942;SDS011;60852;52.190;4.422;2024-02-14T10:07:56;3.60;;;3.60;;
68942;SDS011;60852;52.190;4.422;2024-02-14T10:10:23;3.67;;;3.67;;
68942;SDS011;60852;52.190;4.422;2024-02-14T10:12:49;3.74;;;3.74;;
68942;SDS011;60852;52.190;4.422;2024-02-14T10:15:15;3.41;;;3.41;;
68942;SDS011;60852;52.190;4.422;2024-02-14T10:17:40;3.02;;;3.02;;
68942;SDS011;60852;52.190;4.422;2024-02-14T10:20:06;2.24;;;2.24;;
68942;SDS011;60852;52.190;4.422;2024-02-14T10:22:33;2.16;;;2.16;;
68942;SDS011;60852;52.190;4.422;2024-02-14T10:25:01;2.46;;;2.46;;
68942;SDS011;60852;52.190;4.422;2024-02-14T10:27:26;2.65;;;2.65;;
68942;SDS011;60852;52.190;4.422;2024-02-14T10:29:55;2.94;;;2.94;;
68942;SDS011;60852;52.190;4.422;2024-02-14T10:32:22;3.04;;;3.04;;
68942;SDS011;60852;52.190;4.422;2024-02-14T10:34:49;3.18;;;3.18;;
68942;SDS011;60852;52.190;4.422;2024-02-14T10:37:15;3.32;;;3.32;;
68942;SDS011;60852;52.190;4.422;2024-02-14T10:39:44;3.73;;;3.73;;
68942;SDS011;60852;52.190;4.422;2024-02-14T10:42:14;4.10;;;4.10;;
68942;SDS011;60852;52.190;4.422;2024-02-14T10:44:40;4.37;;;4.37;;
68942;SDS011;60852;52.190;4.422;2024-02-14T10:47:06;4.93;;;4.93;;
68942;SDS011;60852;52.190;4.422;2024-02-14T10:49:39;5.00;;;5.00;;
68942;SDS011;60852;52.190;4.422;2024-02-14T10:52:07;4.80;;;4.80;;
68942;SDS011;60852;52.190;4.422;2024-02-14T10:54:35;4.42;;;4.42;;
68942;SDS011;60852;52.190;4.422;2024-02-14T10:57:04;4.31;;;4.31;;
68942;SDS011;60852;52.190;4.422;2024-02-14T10:59:38;4.50;;;4.50;;
68942;SDS011;60852;52.190;4.422;2024-02-14T11:02:09;4.53;;;4.53;;
68942;SDS011;60852;52.190;4.422;2024-02-14T11:04:36;4.51;;;4.51;;
68942;SDS011;60852;52.190;4.422;2024-02-14T11:07:02;5.12;;;5.12;;
68942;SDS011;60852;52.190;4.422;2024-02-14T11:09:31;5.37;;;5.37;;
68942;SDS011;60852;52.190;4.422;2024-02-14T11:12:02;5.24;;;5.24;;
68942;SDS011;60852;52.190;4.422;2024-02-14T11:14:31;5.30;;;5.30;;
68942;SDS011;60852;52.190;4.422;2024-02-14T11:17:01;5.64;;;5.64;;
68942;SDS011;60852;52.190;4.422;2024-02-14T11:19:33;5.79;;;5.79;;
68942;SDS011;60852;52.190;4.422;2024-02-14T11:22:09;6.27;;;6.27;;
68942;SDS011;60852;52.190;4.422;2024-02-14T11:24:37;6.66;;;6.66;;
68942;SDS011;60852;52.190;4.422;2024-02-14T11:27:02;6.54;;;6.54;;
68942;SDS011;60852;52.190;4.422;2024-02-14T11:29:31;6.96;;;6.96;;
68942;SDS011;60852;52.190;4.422;2024-02-14T11:32:00;6.61;;;6.61;;
68942;SDS011;60852;52.190;4.422;2024-02-14T11:34:27;6.38;;;6.38;;
68942;SDS011;60852;52.190;4.422;2024-02-14T11:36:54;6.33;;;6.33;;
68942;SDS011;60852;52.190;4.422;2024-02-14T11:39:22;6.63;;;6.63;;
68942;SDS011;60852;52.190;4.422;2024-02-14T11:41:48;6.26;;;6.26;;
68942;SDS011;60852;52.190;4.422;2024-02-14T11:44:13;6.15;;;6.15;;
68942;SDS011;60852;52.190;4.422;2024-02-14T11:46:39;6.14;;;6.14;;
68942;SDS011;60852;52.190;4.422;2024-02-14T11:49:05;6.21;;;6.21;;
68942;SDS011;60852;52.190;4.422;2024-02-14T11:51:31;5.51;;;5.51;;
68942;SDS011;60852;52.190;4.422;2024-02-14T11:54:00;4.93;;;4.93;;
68942;SDS011;60852;52.190;4.422;2024-02-14T11:56:32;4.21;;;4.21;;
68942;SDS011;60852;52.190;4.422;2024-02-14T11:59:00;3.96;;;3.96;;
68942;SDS011;60852;52.190;4.422;2024-02-14T12:01:35;3.83;;;3.83;;
68942;SDS011;60852;52.190;4.422;2024-02-14T12:04:02;3.60;;;3.60;;
68942;SDS011;60852;52.190;4.422;2024-02-14T12:06:30;3.44;;;3.44;;
68942;SDS011;60852;52.190;4.422;2024-02-14T12:08:59;3.07;;;3.07;;
68942;SDS011;60852;52.190;4.422;2024-02-14T12:11:30;2.96;;;2.96;;
68942;SDS011;60852;52.190;4.422;2024-02-14T12:14:00;2.78;;;2.78;;
68942;SDS011;60852;52.190;4.422;2024-02-14T12:16:28;2.52;;;2.52;;
68942;SDS011;60852;52.190;4.422;2024-02-14T12:19:27;2.63;;;2.63;;
68942;SDS011;60852;52.190;4.422;2024-02-14T12:21:45;3.15;;;3.15;;
68942;SDS011;60852;52.190;4.422;2024-02-14T12:24:13;3.41;;;3.41;;
68942;SDS011;60852;52.190;4.422;2024-02-14T12:26:40;3.75;;;3.75;;
68942;SDS011;60852;52.190;4.422;2024-02-14T12:29:06;4.07;;;4.07;;
68942;SDS011;60852;52.190;4.422;2024-02-14T12:31:34;3.61;;;3.61;;
68942;SDS011;60852;52.190;4.422;2024-02-14T12:34:00;3.08;;;3.08;;
68942;SDS011;60852;52.190;4.422;2024-02-14T12:36:30;2.87;;;2.87;;
68942;SDS011;60852;52.190;4.422;2024-02-14T12:38:58;3.07;;;3.07;;
68942;SDS011;60852;52.190;4.422;2024-02-14T12:41:23;2.83;;;2.83;;
68942;SDS011;60852;52.190;4.422;2024-02-14T12:43:51;2.94;;;2.94;;
68942;SDS011;60852;52.190;4.422;2024-02-14T12:46:17;3.69;;;3.69;;
68942;SDS011;60852;52.190;4.422;2024-02-14T12:48:43;4.51;;;4.51;;
68942;SDS011;60852;52.190;4.422;2024-02-14T12:51:09;4.75;;;4.75;;
68942;SDS011;60852;52.190;4.422;2024-02-14T12:53:35;4.93;;;4.93;;
68942;SDS011;60852;52.190;4.422;2024-02-14T12:56:00;5.16;;;5.16;;
68942;SDS011;60852;52.190;4.422;2024-02-14T12:58:26;5.44;;;5.44;;
68942;SDS011;60852;52.190;4.422;2024-02-14T13:00:52;5.68;;;5.68;;
68942;SDS011;60852;52.190;4.422;2024-02-14T13:03:18;6.79;;;6.79;;
68942;SDS011;60852;52.190;4.422;2024-02-14T13:05:44;7.07;;;7.07;;
68942;SDS011;60852;52.190;4.422;2024-02-14T13:08:10;7.15;;;7.15;;
68942;SDS011;60852;52.190;4.422;2024-02-14T13:10:38;7.64;;;7.64;;
68942;SDS011;60852;52.190;4.422;2024-02-14T13:13:04;8.49;;;8.49;;
68942;SDS011;60852;52.190;4.422;2024-02-14T13:15:30;8.82;;;8.82;;
68942;SDS011;60852;52.190;4.422;2024-02-14T13:17:55;9.06;;;9.06;;
68942;SDS011;60852;52.190;4.422;2024-02-14T13:20:23;8.38;;;8.38;;
68942;SDS011;60852;52.190;4.422;2024-02-14T13:22:49;8.60;;;8.60;;
68942;SDS011;60852;52.190;4.422;2024-02-14T13:25:14;7.81;;;7.81;;
68942;SDS011;60852;52.190;4.422;2024-02-14T13:27:40;6.83;;;6.83;;
68942;SDS011;60852;52.190;4.422;2024-02-14T13:30:06;6.23;;;6.23;;
68942;SDS011;60852;52.190;4.422;2024-02-14T13:32:34;5.61;;;5.61;;
68942;SDS011;60852;52.190;4.422;2024-02-14T13:34:59;4.99;;;4.99;;
68942;SDS011;60852;52.190;4.422;2024-02-14T13:37:25;4.69;;;4.69;;
68942;SDS011;60852;52.190;4.422;2024-02-14T13:39:51;4.19;;;4.19;;
68942;SDS011;60852;52.190;4.422;2024-02-14T13:42:16;3.82;;;3.82;;
68942;SDS011;60852;52.190;4.422;2024-02-14T13:44:42;3.34;;;3.34;;
68942;SDS011;60852;52.190;4.422;2024-02-14T13:47:08;3.11;;;3.11;;
68942;SDS011;60852;52.190;4.422;2024-02-14T13:49:34;2.60;;;2.60;;
68942;SDS011;60852;52.190;4.422;2024-02-14T13:51:59;2.36;;;2.36;;
68942;SDS011;60852;52.190;4.422;2024-02-14T13:54:25;2.21;;;2.21;;
68942;SDS011;60852;52.190;4.422;2024-02-14T13:56:50;1.97;;;1.97;;
68942;SDS011;60852;52.190;4.422;2024-02-14T13:59:17;1.65;;;1.65;;
68942;SDS011;60852;52.190;4.422;2024-02-14T14:01:44;1.35;;;1.35;;
68942;SDS011;60852;52.190;4.422;2024-02-14T14:04:11;1.21;;;1.21;;
68942;SDS011;60852;52.190;4.422;2024-02-14T14:06:37;1.46;;;1.44;;
68942;SDS011;60852;52.190;4.422;2024-02-14T14:09:04;1.54;;;1.48;;
68942;SDS011;60852;52.190;4.422;2024-02-14T14:11:33;1.55;;;1.53;;
68942;SDS011;60852;52.190;4.422;2024-02-14T14:13:58;1.80;;;1.72;;
68942;SDS011;60852;52.190;4.422;2024-02-14T14:16:25;1.93;;;1.80;;
68942;SDS011;60852;52.190;4.422;2024-02-14T14:18:51;1.73;;;1.62;;
68942;SDS011;60852;52.190;4.422;2024-02-14T14:21:16;1.88;;;1.73;;
68942;SDS011;60852;52.190;4.422;2024-02-14T14:23:42;1.92;;;1.72;;
68942;SDS011;60852;52.190;4.422;2024-02-14T14:26:08;1.77;;;1.60;;
68942;SDS011;60852;52.190;4.422;2024-02-14T14:28:34;2.11;;;1.90;;
68942;SDS011;60852;52.190;4.422;2024-02-14T14:30:59;2.11;;;1.88;;
68942;SDS011;60852;52.190;4.422;2024-02-14T14:33:26;2.73;;;2.31;;